sensor_id;sensor_type;location;lat;lon;timestamp;pressure;altitude;pressure_sealevel;temperature;humidity
48352;BME280;34163;49.314;6.752;2023-07-31T07:48:33;99381.88;;;5.69;100.00
48352;BME280;34163;49.314;6.752;2023-07-31T07:50:58;99378.53;;;5.63;100.00
48352;BME280;34163;49.314;6.752;2023-07-31T07:53:23;99378.53;;;5.63;100.00
48352;BME280;34163;49.314;6.752;2023-07-31T07:55:48;99385.84;;;5.52;100.00
48352;BME280;34163;49.314;6.752;2023-07-31T07:58:14;99385.59;;;5.60;100.00
48352;BME280;34163;49.314;6.752;2023-07-31T08:00:39;99376.66;;;5.67;100.00
48352;BME280;34163;49.314;6.752;2023-07-31T08:03:04;99367.75;;;5.73;100.00
48352;BME280;34163;49.314;6.752;2023-07-31T08:05:29;99374.53;;;5.80;100.00
48352;BME280;34163;49.314;6.752;2023-07-31T08:07:55;99374.06;;;5.66;100.00
48352;BME280;34163;49.314;6.752;2023-07-31T08:10:20;99376.78;;;5.62;100.00
48352;BME280;34163;49.314;6.752;2023-07-31T08:12:46;99368.59;;;5.73;100.00
48352;BME280;34163;49.314;6.752;2023-07-31T08:15:11;99373.53;;;5.84;100.00
48352;BME280;34163;49.314;6.752;2023-07-31T08:17:36;99367.44;;;5.82;100.00
48352;BME280;34163;49.314;6.752;2023-07-31T08:20:01;99370.28;;;5.74;100.00
48352;BME280;34163;49.314;6.752;2023-07-31T08:22:28;99372.81;;;5.77;100.00
48352;BME280;34163;49.314;6.752;2023-07-31T08:24:54;99364.66;;;5.87;100.00
48352;BME280;34163;49.314;6.752;2023-07-31T08:27:19;99362.25;;;5.79;100.00
48352;BME280;34163;49.314;6.752;2023-07-31T08:29:45;99347.50;;;5.75;100.00
48352;BME280;34163;49.314;6.752;2023-07-31T08:32:10;99343.00;;;5.78;100.00
48352;BME280;34163;49.314;6.752;2023-07-31T08:34:35;99338.16;;;5.64;100.00
48352;BME280;34163;49.314;6.752;2023-07-31T08:37:01;99328.34;;;5.71;100.00
48352;BME280;34163;49.314;6.752;2023-07-31T08:39:26;99334.31;;;5.76;100.00
48352;BME280;34163;49.314;6.752;2023-07-31T08:41:51;99316.84;;;5.74;100.00
48352;BME280;34163;49.314;6.752;2023-07-31T08:44:22;99321.97;;;5.78;100.00
48352;BME280;34163;49.314;6.752;2023-07-31T08:46:49;99307.81;;;5.84;100.00
48352;BME280;34163;49.314;6.752;2023-07-31T08:49:14;99309.53;;;5.83;100.00
48352;BME280;34163;49.314;6.752;2023-07-31T08:51:40;99312.22;;;5.82;100.00
48352;BME280;34163;49.314;6.752;2023-07-31T08:54:06;99316.53;;;5.85;100.00
48352;BME280;34163;49.314;6.752;2023-07-31T08:56:32;99308.50;;;5.89;100.00
48352;BME280;34163;49.314;6.752;2023-07-31T08:58:57;99317.34;;;5.87;100.00
48352;BME280;34163;49.314;6.752;2023-07-31T09:01:23;99320.34;;;5.74;100.00
48352;BME280;34163;49.314;6.752;2023-07-31T09:03:49;99325.84;;;5.67;100.00
48352;BME280;34163;49.314;6.752;2023-07-31T09:06:16;99331.81;;;5.72;100.00
48352;BME280;34163;49.314;6.752;2023-07-31T09:08:43;99328.84;;;5.84;100.00
48352;BME280;34163;49.314;6.752;2023-07-31T09:11:08;99340.09;;;5.88;100.00
48352;BME280;34163;49.314;6.752;2023-07-31T09:13:33;99331.38;;;5.87;100.00
48352;BME280;34163;49.314;6.752;2023-07-31T09:15:59;99343.53;;;5.90;100.00
48352;BME280;34163;49.314;6.752;2023-07-31T09:18:24;99334.19;;;5.81;100.00
48352;BME280;34163;49.314;6.752;2023-07-31T09:21:02;99337.84;;;5.75;100.00
48352;BME280;34163;49.314;6.752;2023-07-31T09:23:27;99342.47;;;5.67;100.00
48352;BME280;34163;49.314;6.752;2023-07-31T09:26:04;99329.91;;;5.77;100.00
48352;BME280;34163;49.314;6.752;2023-07-31T09:28:30;99318.63;;;5.73;100.00
48352;BME280;34163;49.314;6.752;2023-07-31T09:30:56;99327.28;;;5.77;100.00
48352;BME280;34163;49.314;6.752;2023-07-31T09:33:21;99326.81;;;5.92;100.00
48352;BME280;34163;49.314;6.752;2023-07-31T09:35:47;99323.34;;;5.90;100.00
48352;BME280;34163;49.314;6.752;2023-07-31T09:38:15;99327.28;;;5.77;100.00
48352;BME280;34163;49.314;6.752;2023-07-31T09:40:41;99322.75;;;5.82;100.00
48352;BME280;34163;49.314;6.752;2023-07-31T09:43:07;99316.50;;;5.86;100.00
48352;BME280;34163;49.314;6.752;2023-07-31T09:45:34;99315.72;;;5.82;100.00
48352;BME280;34163;49.314;6.752;2023-07-31T09:48:00;99313.34;;;5.75;100.00
48352;BME280;34163;49.314;6.752;2023-07-31T09:50:25;99316.94;;;5.71;100.00
48352;BME280;34163;49.314;6.752;2023-07-31T09:52:51;99314.13;;;5.77;100.00
48352;BME280;34163;49.314;6.752;2023-07-31T09:55:17;99320.19;;;5.79;100.00
48352;BME280;34163;49.314;6.752;2023-07-31T09:57:44;99324.00;;;5.70;100.00
48352;BME280;34163;49.314;6.752;2023-07-31T10:00:10;99321.22;;;5.75;100.00
48352;BME280;34163;49.314;6.752;2023-07-31T10:02:36;99324.66;;;5.77;100.00
48352;BME280;34163;49.314;6.752;2023-07-31T10:05:02;99322.69;;;5.83;100.00
48352;BME280;34163;49.314;6.752;2023-07-31T10:07:28;99328.03;;;5.80;100.00
48352;BME280;34163;49.314;6.752;2023-07-31T10:09:55;99326.53;;;5.73;100.00
48352;BME280;34163;49.314;6.752;2023-07-31T10:12:21;99323.22;;;5.67;100.00
48352;BME280;34163;49.314;6.752;2023-07-31T10:14:47;99323.09;;;5.71;100.00
48352;BME280;34163;49.314;6.752;2023-07-31T10:17:12;99314.22;;;5.74;100.00
48352;BME280;34163;49.314;6.752;2023-07-31T10:19:38;99310.03;;;5.68;100.00
48352;BME280;34163;49.314;6.752;2023-07-31T10:22:04;99315.16;;;5.73;100.00
48352;BME280;34163;49.314;6.752;2023-07-31T10:24:29;99315.03;;;5.76;100.00
48352;BME280;34163;49.314;6.752;2023-07-31T10:26:56;99302.91;;;5.72;100.00
48352;BME280;34163;49.314;6.752;2023-07-31T10:29:22;99306.56;;;5.66;100.00
48352;BME280;34163;49.314;6.752;2023-07-31T10:31:49;99295.63;;;5.80;100.00
48352;BME280;34163;49.314;6.752;2023-07-31T10:34:15;99301.63;;;5.85;100.00
48352;BME280;34163;49.314;6.752;2023-07-31T10:36:41;99298.69;;;5.66;100.00
48352;BME280;34163;49.314;6.752;2023-07-31T10:39:06;99294.31;;;5.67;100.00
48352;BME280;34163;49.314;6.752;2023-07-31T10:41:51;99288.25;;;5.63;100.00
48352;BME280;34163;49.314;6.752;2023-07-31T10:44:16;99294.34;;;5.65;100.00
48352;BME280;34163;49.314;6.752;2023-07-31T10:46:42;99287.59;;;5.56;100.00
48352;BME280;34163;49.314;6.752;2023-07-31T10:49:07;99291.03;;;5.58;100.00
48352;BME280;34163;49.314;6.752;2023-07-31T10:51:33;99290.94;;;5.61;100.00
48352;BME280;34163;49.314;6.752;2023-07-31T10:54:15;99288.22;;;5.64;100.00
48352;BME280;34163;49.314;6.752;2023-07-31T10:56:46;99286.66;;;5.59;100.00
48352;BME280;34163;49.314;6.752;2023-07-31T10:59:12;99286.59;;;5.60;100.00
48352;BME280;34163;49.314;6.752;2023-07-31T11:01:53;99289.06;;;5.67;100.00
48352;BME280;34163;49.314;6.752;2023-07-31T11:04:26;99290.75;;;5.68;100.00
48352;BME280;34163;49.314;6.752;2023-07-31T11:06:55;99282.16;;;5.62;100.00
48352;BME280;34163;49.314;6.752;2023-07-31T11:09:20;99285.50;;;5.68;100.00
48352;BME280;34163;49.314;6.752;2023-07-31T11:11:46;99285.59;;;5.64;100.00
48352;BME280;34163;49.314;6.752;2023-07-31T11:14:11;99284.84;;;5.61;100.00
48352;BME280;34163;49.314;6.752;2023-07-31T11:16:36;99285.69;;;5.61;100.00
48352;BME280;34163;49.314;6.752;2023-07-31T11:19:01;99287.41;;;5.62;100.00
48352;BME280;34163;49.314;6.752;2023-07-31T11:21:27;99288.97;;;5.70;100.00
48352;BME280;34163;49.314;6.752;2023-07-31T11:23:54;99279.16;;;5.75;100.00
48352;BME280;34163;49.314;6.752;2023-07-31T11:26:21;99288.69;;;5.77;100.00
48352;BME280;34163;49.314;6.752;2023-07-31T11:28:48;99272.78;;;5.82;100.00
48352;BME280;34163;49.314;6.752;2023-07-31T11:31:14;99275.66;;;5.74;100.00
48352;BME280;34163;49.314;6.752;2023-07-31T11:33:39;99268.84;;;5.69;100.00
48352;BME280;34163;49.314;6.752;2023-07-31T11:36:05;99275.91;;;5.67;100.00
48352;BME280;34163;49.314;6.752;2023-07-31T11:38:30;99276.66;;;5.70;100.00
48352;BME280;34163;49.314;6.752;2023-07-31T11:40:57;99276.53;;;5.75;100.00
48352;BME280;34163;49.314;6.752;2023-07-31T11:43:23;99281.78;;;5.75;100.00
48352;BME280;34163;49.314;6.752;2023-07-31T11:45:49;99286.44;;;5.93;100.00
48352;BME280;34163;49.314;6.752;2023-07-31T11:48:25;99289.59;;;5.78;100.00
48352;BME280;34163;49.314;6.752;2023-07-31T11:50:52;99280.25;;;5.68;100.00
48352;BME280;34163;49.314;6.752;2023-07-31T11:53:24;99268.13;;;5.63;100.00
48352;BME280;34163;49.314;6.752;2023-07-31T11:55:50;99269.81;;;5.64;100.00
48352;BME280;34163;49.314;6.752;2023-07-31T11:58:16;99265.44;;;5.65;100.00
48352;BME280;34163;49.314;6.752;2023-07-31T12:00:43;99255.59;;;5.72;100.00
48352;BME280;34163;49.314;6.752;2023-07-31T12:03:08;99266.25;;;5.67;100.00
48352;BME280;34163;49.314;6.752;2023-07-31T12:05:33;99269.53;;;5.74;100.00
48352;BME280;34163;49.314;6.752;2023-07-31T12:07:59;99264.19;;;5.77;100.00
48352;BME280;34163;49.314;6.752;2023-07-31T12:10:28;99262.59;;;5.73;100.00
48352;BME280;34163;49.314;6.752;2023-07-31T12:12:58;99262.41;;;5.77;100.00
48352;BME280;34163;49.314;6.752;2023-07-31T12:15:36;99257.31;;;5.73;100.00
48352;BME280;34163;49.314;6.752;2023-07-31T12:18:06;99263.25;;;5.79;100.00
48352;BME280;34163;49.314;6.752;2023-07-31T12:20:32;99256.41;;;5.74;100.00
48352;BME280;34163;49.314;6.752;2023-07-31T12:22:58;99273.72;;;5.81;100.00
48352;BME280;34163;49.314;6.752;2023-07-31T12:25:31;99269.25;;;5.83;100.00
48352;BME280;34163;49.314;6.752;2023-07-31T12:27:56;99279.88;;;5.80;100.00
48352;BME280;34163;49.314;6.752;2023-07-31T12:30:31;99280.91;;;5.74;100.00
48352;BME280;34163;49.314;6.752;2023-07-31T12:32:57;99287.91;;;5.75;100.00
48352;BME280;34163;49.314;6.752;2023-07-31T12:35:22;99287.22;;;5.69;100.00
48352;BME280;34163;49.314;6.752;2023-07-31T12:37:48;99267.13;;;10.46;100.00
48352;BME280;34163;49.314;6.752;2023-07-31T12:40:13;99255.00;;;9.69;100.00
48352;BME280;34163;49.314;6.752;2023-07-31T12:42:38;99277.47;;;7.28;100.00
48352;BME280;34163;49.314;6.752;2023-07-31T12:45:04;99267.06;;;6.76;100.00
48352;BME280;34163;49.314;6.752;2023-07-31T12:47:29;99265.03;;;6.59;100.00
48352;BME280;34163;49.314;6.752;2023-07-31T12:49:55;99253.63;;;6.33;100.00
48352;BME280;34163;49.314;6.752;2023-07-31T12:52:20;99237.94;;;6.30;100.00
48352;BME280;34163;49.314;6.752;2023-07-31T12:54:45;99239.94;;;6.22;100.00
48352;BME280;34163;49.314;6.752;2023-07-31T12:57:11;99222.78;;;6.12;100.00
48352;BME280;34163;49.314;6.752;2023-07-31T12:59:36;99211.41;;;6.11;100.00
48352;BME280;34163;49.314;6.752;2023-07-31T13:02:01;99213.78;;;6.19;100.00
48352;BME280;34163;49.314;6.752;2023-07-31T13:04:27;99204.25;;;6.15;100.00
48352;BME280;34163;49.314;6.752;2023-07-31T13:06:52;99197.50;;;6.06;100.00
48352;BME280;34163;49.314;6.752;2023-07-31T13:09:17;99200.97;;;6.08;100.00
48352;BME280;34163;49.314;6.752;2023-07-31T13:11:42;99193.13;;;6.07;100.00
48352;BME280;34163;49.314;6.752;2023-07-31T13:14:08;99191.59;;;5.99;100.00
48352;BME280;34163;49.314;6.752;2023-07-31T13:16:33;99185.28;;;6.05;100.00
48352;BME280;34163;49.314;6.752;2023-07-31T13:18:58;99181.69;;;6.08;100.00
48352;BME280;34163;49.314;6.752;2023-07-31T13:21:24;99177.25;;;6.10;100.00
48352;BME280;34163;49.314;6.752;2023-07-31T13:23:49;99157.91;;;6.11;100.00
48352;BME280;34163;49.314;6.752;2023-07-31T13:26:14;99155.38;;;6.08;100.00
48352;BME280;34163;49.314;6.752;2023-07-31T13:28:40;99151.69;;;6.13;100.00
48352;BME280;34163;49.314;6.752;2023-07-31T13:31:05;99155.28;;;6.11;100.00
48352;BME280;34163;49.314;6.752;2023-07-31T13:33:30;99156.00;;;6.16;100.00
48352;BME280;34163;49.314;6.752;2023-07-31T13:35:55;99160.53;;;6.11;100.00
48352;BME280;34163;49.314;6.752;2023-07-31T13:38:21;99157.06;;;6.10;100.00
48352;BME280;34163;49.314;6.752;2023-07-31T13:40:47;99152.66;;;6.11;100.00
48352;BME280;34163;49.314;6.752;2023-07-31T13:43:12;99151.00;;;6.08;100.00
48352;BME280;34163;49.314;6.752;2023-07-31T13:45:38;99150.06;;;6.09;100.00
48352;BME280;34163;49.314;6.752;2023-07-31T13:48:03;99155.44;;;6.06;100.00
48352;BME280;34163;49.314;6.752;2023-07-31T13:50:28;99155.31;;;6.09;100.00
48352;BME280;34163;49.314;6.752;2023-07-31T13:52:54;99150.13;;;6.08;100.00
48352;BME280;34163;49.314;6.752;2023-07-31T13:55:19;99145.78;;;6.07;100.00
48352;BME280;34163;49.314;6.752;2023-07-31T13:57:44;99142.47;;;6.02;100.00
48352;BME280;34163;49.314;6.752;2023-07-31T14:00:10;99140.00;;;5.97;100.00
48352;BME280;34163;49.314;6.752;2023-07-31T14:02:35;99144.16;;;6.03;100.00
48352;BME280;34163;49.314;6.752;2023-07-31T14:05:01;99147.53;;;6.06;100.00
48352;BME280;34163;49.314;6.752;2023-07-31T14:07:26;99141.31;;;6.09;100.00
48352;BME280;34163;49.314;6.752;2023-07-31T14:09:51;99144.97;;;6.05;100.00
48352;BME280;34163;49.314;6.752;2023-07-31T14:12:16;99152.53;;;6.14;100.00
48352;BME280;34163;49.314;6.752;2023-07-31T14:14:42;99144.97;;;6.05;100.00
48352;BME280;34163;49.314;6.752;2023-07-31T14:17:07;99146.53;;;6.10;100.00
48352;BME280;34163;49.314;6.752;2023-07-31T14:19:32;99142.47;;;6.02;100.00
48352;BME280;34163;49.314;6.752;2023-07-31T14:21:58;99133.44;;;6.09;100.00
48352;BME280;34163;49.314;6.752;2023-07-31T14:24:23;99123.75;;;6.09;100.00
48352;BME280;34163;49.314;6.752;2023-07-31T14:26:48;99141.28;;;6.10;100.00
48352;BME280;34163;49.314;6.752;2023-07-31T14:29:14;99129.91;;;6.10;100.00
48352;BME280;34163;49.314;6.752;2023-07-31T14:31:39;99126.88;;;6.21;100.00
48352;BME280;34163;49.314;6.752;2023-07-31T14:34:04;99124.59;;;6.11;100.00
48352;BME280;34163;49.314;6.752;2023-07-31T14:36:30;99117.66;;;6.09;100.00
48352;BME280;34163;49.314;6.752;2023-07-31T14:38:55;99111.44;;;6.11;100.00
48352;BME280;34163;49.314;6.752;2023-07-31T14:41:20;99106.28;;;6.08;100.00
48352;BME280;34163;49.314;6.752;2023-07-31T14:43:46;99099.94;;;6.14;100.00
48352;BME280;34163;49.314;6.752;2023-07-31T14:46:11;99104.28;;;6.15;100.00
48352;BME280;34163;49.314;6.752;2023-07-31T14:48:36;99117.66;;;6.09;100.00
48352;BME280;34163;49.314;6.752;2023-07-31T14:51:01;99110.44;;;6.14;100.00
48352;BME280;34163;49.314;6.752;2023-07-31T14:53:27;99107.94;;;6.11;100.00
48352;BME280;34163;49.314;6.752;2023-07-31T14:55:52;99108.16;;;6.05;100.00
48352;BME280;34163;49.314;6.752;2023-07-31T14:58:17;99096.56;;;6.10;100.00
48352;BME280;34163;49.314;6.752;2023-07-31T15:00:43;99094.88;;;6.08;100.00
48352;BME280;34163;49.314;6.752;2023-07-31T15:03:08;99099.19;;;6.10;100.00
48352;BME280;34163;49.314;6.752;2023-07-31T15:05:33;99089.53;;;6.11;100.00
48352;BME280;34163;49.314;6.752;2023-07-31T15:07:58;99090.50;;;6.08;100.00
48352;BME280;34163;49.314;6.752;2023-07-31T15:10:24;99088.88;;;6.04;100.00
48352;BME280;34163;49.314;6.752;2023-07-31T15:12:49;99089.34;;;6.15;100.00
48352;BME280;34163;49.314;6.752;2023-07-31T15:15:15;99091.50;;;6.04;100.00
48352;BME280;34163;49.314;6.752;2023-07-31T15:17:40;99078.47;;;6.01;100.00
48352;BME280;34163;49.314;6.752;2023-07-31T15:20:05;99074.19;;;5.98;100.00
48352;BME280;34163;49.314;6.752;2023-07-31T15:22:31;99082.78;;;6.04;100.00
48352;BME280;34163;49.314;6.752;2023-07-31T15:24:56;99078.41;;;6.03;100.00
48352;BME280;34163;49.314;6.752;2023-07-31T15:27:22;99076.66;;;6.03;100.00
48352;BME280;34163;49.314;6.752;2023-07-31T15:29:47;99081.25;;;5.96;100.00
48352;BME280;34163;49.314;6.752;2023-07-31T15:32:12;99081.34;;;5.93;100.00
48352;BME280;34163;49.314;6.752;2023-07-31T15:34:37;99077.91;;;5.91;100.00
48352;BME280;34163;49.314;6.752;2023-07-31T15:37:10;99070.91;;;5.90;100.00
48352;BME280;34163;49.314;6.752;2023-07-31T15:39:35;99070.75;;;5.96;100.00
48352;BME280;34163;49.314;6.752;2023-07-31T15:42:00;99069.06;;;5.94;100.00
48352;BME280;34163;49.314;6.752;2023-07-31T15:44:26;99071.75;;;5.92;100.00
48352;BME280;34163;49.314;6.752;2023-07-31T15:46:51;99082.22;;;5.94;100.00
48352;BME280;34163;49.314;6.752;2023-07-31T15:49:16;99086.69;;;5.90;100.00
48352;BME280;34163;49.314;6.752;2023-07-31T15:51:42;99079.47;;;5.98;100.00
48352;BME280;34163;49.314;6.752;2023-07-31T15:54:07;99093.56;;;5.94;100.00
48352;BME280;34163;49.314;6.752;2023-07-31T15:56:32;99101.19;;;6.04;100.00
48352;BME280;34163;49.314;6.752;2023-07-31T15:58:57;99096.03;;;6.00;100.00
48352;BME280;34163;49.314;6.752;2023-07-31T16:01:23;99083.78;;;5.99;100.00
48352;BME280;34163;49.314;6.752;2023-07-31T16:03:49;99095.06;;;6.03;100.00
48352;BME280;34163;49.314;6.752;2023-07-31T16:06:14;99101.13;;;6.05;100.00
48352;BME280;34163;49.314;6.752;2023-07-31T16:09:22;99094.09;;;6.06;100.00
48352;BME280;34163;49.314;6.752;2023-07-31T16:11:46;99087.28;;;6.00;100.00
48352;BME280;34163;49.314;6.752;2023-07-31T16:14:12;99082.88;;;6.00;100.00
48352;BME280;34163;49.314;6.752;2023-07-31T16:16:37;99073.84;;;6.08;100.00
48352;BME280;34163;49.314;6.752;2023-07-31T16:19:02;99071.00;;;6.14;100.00
48352;BME280;34163;49.314;6.752;2023-07-31T16:21:28;99081.72;;;6.08;100.00
48352;BME280;34163;49.314;6.752;2023-07-31T16:23:53;99094.03;;;6.07;100.00
48352;BME280;34163;49.314;6.752;2023-07-31T16:26:19;99089.63;;;6.08;100.00
48352;BME280;34163;49.314;6.752;2023-07-31T16:28:44;99074.50;;;6.14;100.00
48352;BME280;34163;49.314;6.752;2023-07-31T16:31:09;99074.72;;;6.08;100.00
48352;BME280;34163;49.314;6.752;2023-07-31T16:33:35;99071.72;;;6.19;100.00
48352;BME280;34163;49.314;6.752;2023-07-31T16:36:00;99064.88;;;6.13;100.00
48352;BME280;34163;49.314;6.752;2023-07-31T16:38:25;99062.38;;;6.10;100.00
48352;BME280;34163;49.314;6.752;2023-07-31T16:40:50;99065.72;;;6.14;100.00
48352;BME280;34163;49.314;6.752;2023-07-31T16:43:16;99074.72;;;6.08;100.00
48352;BME280;34163;49.314;6.752;2023-07-31T16:45:41;99065.06;;;6.09;100.00
48352;BME280;34163;49.314;6.752;2023-07-31T16:48:06;99062.31;;;6.12;100.00
48352;BME280;34163;49.314;6.752;2023-07-31T16:50:31;99061.31;;;6.16;100.00
48352;BME280;34163;49.314;6.752;2023-07-31T16:52:57;99047.50;;;6.09;100.00
48352;BME280;34163;49.314;6.752;2023-07-31T16:55:22;99033.28;;;6.15;100.00
48352;BME280;34163;49.314;6.752;2023-07-31T16:57:47;99035.16;;;6.11;100.00
48352;BME280;34163;49.314;6.752;2023-07-31T17:00:13;99029.38;;;6.02;100.00
48352;BME280;34163;49.314;6.752;2023-07-31T17:02:38;99032.81;;;6.04;100.00
48352;BME280;34163;49.314;6.752;2023-07-31T17:05:04;99026.16;;;6.17;100.00
48352;BME280;34163;49.314;6.752;2023-07-31T17:07:30;99035.28;;;6.08;100.00
48352;BME280;34163;49.314;6.752;2023-07-31T17:09:55;99033.59;;;6.06;100.00
48352;BME280;34163;49.314;6.752;2023-07-31T17:12:21;99033.50;;;6.09;100.00
48352;BME280;34163;49.314;6.752;2023-07-31T17:14:46;99022.19;;;6.07;100.00
48352;BME280;34163;49.314;6.752;2023-07-31T17:17:12;99031.75;;;6.08;100.00
48352;BME280;34163;49.314;6.752;2023-07-31T17:19:37;99024.59;;;6.13;100.00
48352;BME280;34163;49.314;6.752;2023-07-31T17:22:02;99022.22;;;6.05;100.00
48352;BME280;34163;49.314;6.752;2023-07-31T17:24:28;99004.56;;;6.09;100.00
48352;BME280;34163;49.314;6.752;2023-07-31T17:26:53;98994.03;;;6.09;100.00
48352;BME280;34163;49.314;6.752;2023-07-31T17:29:18;98985.25;;;6.10;100.00
48352;BME280;34163;49.314;6.752;2023-07-31T17:31:44;98983.28;;;6.15;100.00
48352;BME280;34163;49.314;6.752;2023-07-31T17:34:09;98979.91;;;6.11;100.00
48352;BME280;34163;49.314;6.752;2023-07-31T17:36:35;98966.78;;;6.11;100.00
48352;BME280;34163;49.314;6.752;2023-07-31T17:39:00;98963.50;;;6.05;100.00
48352;BME280;34163;49.314;6.752;2023-07-31T17:41:25;98958.00;;;6.11;100.00
48352;BME280;34163;49.314;6.752;2023-07-31T17:43:52;98960.84;;;6.05;100.00
48352;BME280;34163;49.314;6.752;2023-07-31T17:46:17;98961.50;;;6.11;100.00
48352;BME280;34163;49.314;6.752;2023-07-31T17:48:43;98961.47;;;6.13;100.00
48352;BME280;34163;49.314;6.752;2023-07-31T17:51:08;98966.81;;;6.10;100.00
48352;BME280;34163;49.314;6.752;2023-07-31T17:53:34;98956.19;;;6.13;100.00
48352;BME280;34163;49.314;6.752;2023-07-31T17:55:59;98943.94;;;6.12;100.00
48352;BME280;34163;49.314;6.752;2023-07-31T17:58:24;98951.56;;;6.20;100.00
48352;BME280;34163;49.314;6.752;2023-07-31T18:00:50;98951.06;;;6.10;100.00
48352;BME280;34163;49.314;6.752;2023-07-31T18:03:16;98954.47;;;6.12;100.00
48352;BME280;34163;49.314;6.752;2023-07-31T18:05:41;98956.41;;;6.07;100.00
48352;BME280;34163;49.314;6.752;2023-07-31T18:08:06;98946.34;;;6.18;100.00
48352;BME280;34163;49.314;6.752;2023-07-31T18:10:31;98947.09;;;6.22;100.00
48352;BME280;34163;49.314;6.752;2023-07-31T18:12:58;98950.56;;;6.22;100.00
48352;BME280;34163;49.314;6.752;2023-07-31T18:15:23;98953.25;;;6.21;100.00
48352;BME280;34163;49.314;6.752;2023-07-31T18:17:50;98957.50;;;6.25;100.00
48352;BME280;34163;49.314;6.752;2023-07-31T18:20:15;98961.97;;;6.23;100.00
48352;BME280;34163;49.314;6.752;2023-07-31T18:22:40;98953.78;;;6.30;100.00
48352;BME280;34163;49.314;6.752;2023-07-31T18:25:06;98946.00;;;6.27;100.00
48352;BME280;34163;49.314;6.752;2023-07-31T18:27:32;98945.13;;;6.27;100.00
48352;BME280;34163;49.314;6.752;2023-07-31T18:29:57;98940.97;;;6.21;100.00
48352;BME280;34163;49.314;6.752;2023-07-31T18:32:22;98938.41;;;6.20;100.00
48352;BME280;34163;49.314;6.752;2023-07-31T18:34:47;98939.00;;;6.26;100.00
48352;BME280;34163;49.314;6.752;2023-07-31T18:37:12;98943.59;;;6.21;100.00
48352;BME280;34163;49.314;6.752;2023-07-31T18:39:38;98940.19;;;6.19;100.00
48352;BME280;34163;49.314;6.752;2023-07-31T18:42:03;98948.06;;;6.19;100.00
48352;BME280;34163;49.314;6.752;2023-07-31T18:44:29;98943.53;;;6.23;100.00
48352;BME280;34163;49.314;6.752;2023-07-31T18:46:57;98941.75;;;6.23;100.00
48352;BME280;34163;49.314;6.752;2023-07-31T18:49:22;98944.56;;;6.18;100.00
48352;BME280;34163;49.314;6.752;2023-07-31T18:51:47;98938.22;;;6.24;100.00
48352;BME280;34163;49.314;6.752;2023-07-31T18:54:13;98929.56;;;6.21;100.00
48352;BME280;34163;49.314;6.752;2023-07-31T18:56:38;98926.09;;;6.20;100.00
48352;BME280;34163;49.314;6.752;2023-07-31T18:59:03;98923.63;;;6.15;100.00
48352;BME280;34163;49.314;6.752;2023-07-31T19:01:29;98922.56;;;6.21;100.00
48352;BME280;34163;49.314;6.752;2023-07-31T19:03:54;98924.47;;;6.17;100.00
48352;BME280;34163;49.314;6.752;2023-07-31T19:06:19;98921.06;;;6.14;100.00
48352;BME280;34163;49.314;6.752;2023-07-31T19:08:44;98921.78;;;6.19;100.00
48352;BME280;34163;49.314;6.752;2023-07-31T19:11:10;98923.69;;;6.14;100.00
48352;BME280;34163;49.314;6.752;2023-07-31T19:13:36;98917.47;;;6.16;100.00
48352;BME280;34163;49.314;6.752;2023-07-31T19:16:02;98917.75;;;6.09;100.00
48352;BME280;34163;49.314;6.752;2023-07-31T19:18:27;98923.47;;;6.20;100.00
48352;BME280;34163;49.314;6.752;2023-07-31T19:20:53;98911.16;;;6.21;100.00
48352;BME280;34163;49.314;6.752;2023-07-31T19:23:20;98905.97;;;6.19;100.00
48352;BME280;34163;49.314;6.752;2023-07-31T19:25:45;98904.44;;;6.13;100.00
48352;BME280;34163;49.314;6.752;2023-07-31T19:28:10;98901.63;;;6.18;100.00
48352;BME280;34163;49.314;6.752;2023-07-31T19:30:45;98904.38;;;6.15;100.00
48352;BME280;34163;49.314;6.752;2023-07-31T19:33:11;98907.75;;;6.18;100.00
48352;BME280;34163;49.314;6.752;2023-07-31T19:35:38;98888.31;;;6.23;100.00
48352;BME280;34163;49.314;6.752;2023-07-31T19:38:03;98893.84;;;6.15;100.00
48352;BME280;34163;49.314;6.752;2023-07-31T19:40:28;98887.56;;;6.19;100.00
48352;BME280;34163;49.314;6.752;2023-07-31T19:42:54;98885.84;;;6.18;100.00
48352;BME280;34163;49.314;6.752;2023-07-31T19:45:24;98888.31;;;6.23;100.00
48352;BME280;34163;49.314;6.752;2023-07-31T19:47:49;98886.63;;;6.20;100.00
48352;BME280;34163;49.314;6.752;2023-07-31T19:50:15;98883.22;;;6.18;100.00
48352;BME280;34163;49.314;6.752;2023-07-31T19:52:40;98882.75;;;6.30;100.00
48352;BME280;34163;49.314;6.752;2023-07-31T19:55:06;98884.38;;;6.33;100.00
48352;BME280;34163;49.314;6.752;2023-07-31T19:57:32;98882.81;;;6.29;100.00
48352;BME280;34163;49.314;6.752;2023-07-31T19:59:57;98883.75;;;6.26;100.00
48352;BME280;34163;49.314;6.752;2023-07-31T20:02:22;98877.47;;;6.30;100.00
48352;BME280;34163;49.314;6.752;2023-07-31T20:04:48;98873.97;;;6.30;100.00
48352;BME280;34163;49.314;6.752;2023-07-31T20:07:13;98867.97;;;6.26;100.00
48352;BME280;34163;49.314;6.752;2023-07-31T20:09:38;98861.13;;;6.22;100.00
48352;BME280;34163;49.314;6.752;2023-07-31T20:12:03;98848.66;;;6.27;100.00
48352;BME280;34163;49.314;6.752;2023-07-31T20:14:29;98844.13;;;6.31;100.00
48352;BME280;34163;49.314;6.752;2023-07-31T20:16:54;98840.31;;;6.38;100.00
48352;BME280;34163;49.314;6.752;2023-07-31T20:19:20;98837.78;;;6.35;100.00
48352;BME280;34163;49.314;6.752;2023-07-31T20:21:45;98836.28;;;6.29;100.00
48352;BME280;34163;49.314;6.752;2023-07-31T20:24:10;98826.50;;;6.33;100.00
48352;BME280;34163;49.314;6.752;2023-07-31T20:26:36;98831.16;;;6.26;100.00
48352;BME280;34163;49.314;6.752;2023-07-31T20:29:01;98817.03;;;6.29;100.00
48352;BME280;34163;49.314;6.752;2023-07-31T20:31:27;98822.34;;;6.27;100.00
48352;BME280;34163;49.314;6.752;2023-07-31T20:33:52;98814.28;;;6.32;100.00
48352;BME280;34163;49.314;6.752;2023-07-31T20:36:17;98809.13;;;6.29;100.00
48352;BME280;34163;49.314;6.752;2023-07-31T20:38:43;98801.78;;;6.37;100.00
48352;BME280;34163;49.314;6.752;2023-07-31T20:41:09;98795.03;;;6.30;100.00